createdAt,value
2024-01-18T00:00:07.009Z,20.20
2024-01-18T00:01:06.899Z,19.90
2024-01-18T00:02:06.849Z,18.20
2024-01-18T00:03:06.891Z,18.50
2024-01-18T00:04:06.857Z,19.10
2024-01-18T00:05:06.687Z,19.30
2024-01-18T00:06:06.660Z,20.20
2024-01-18T00:07:06.634Z,19.50
2024-01-18T00:08:06.534Z,19.10
2024-01-18T00:09:06.495Z,18.10
2024-01-18T00:10:06.439Z,20.70
2024-01-18T00:11:06.396Z,21.40
2024-01-18T00:12:06.373Z,20.10
2024-01-18T00:13:06.289Z,21.40
2024-01-18T00:14:06.237Z,19.30
2024-01-18T00:15:06.208Z,19.00
2024-01-18T00:16:06.142Z,20.50
2024-01-18T00:17:06.087Z,20.00
2024-01-18T00:18:06.220Z,18.40
2024-01-18T00:19:06.151Z,20.00
2024-01-18T00:20:05.962Z,18.40
2024-01-18T00:21:05.991Z,20.20
2024-01-18T00:22:05.843Z,18.50
2024-01-18T00:23:05.790Z,18.40
2024-01-18T00:24:05.765Z,21.60
2024-01-18T00:25:05.693Z,19.20
2024-01-18T00:26:05.640Z,21.40
2024-01-18T00:27:05.619Z,20.80
2024-01-18T00:28:05.537Z,20.10
2024-01-18T00:29:05.489Z,20.20
2024-01-18T00:30:05.477Z,21.60
2024-01-18T00:31:05.389Z,19.30
2024-01-18T00:32:05.403Z,20.20
2024-01-18T00:33:05.409Z,19.10
2024-01-18T00:34:05.331Z,24.40
2024-01-18T00:35:05.271Z,18.50
2024-01-18T00:36:05.226Z,19.30
2024-01-18T00:37:05.112Z,21.20
2024-01-18T00:38:05.078Z,18.90
2024-01-18T00:39:05.012Z,19.30
2024-01-18T00:40:04.952Z,21.00
2024-01-18T00:41:04.914Z,22.90
2024-01-18T00:42:04.897Z,19.80
2024-01-18T00:43:04.797Z,19.70
2024-01-18T00:44:04.824Z,21.30
2024-01-18T00:45:04.773Z,19.00
2024-01-18T00:46:04.663Z,19.30
2024-01-18T00:47:04.618Z,21.70
2024-01-18T00:48:04.671Z,22.90
2024-01-18T00:49:04.575Z,23.10
2024-01-18T00:50:04.461Z,20.30
2024-01-18T00:51:04.559Z,20.80
2024-01-18T00:52:04.367Z,21.40
2024-01-18T00:53:04.303Z,18.20
2024-01-18T00:54:04.314Z,19.90
2024-01-18T00:55:04.204Z,18.00
2024-01-18T00:56:04.171Z,19.60
2024-01-18T00:57:04.207Z,19.60
2024-01-18T00:58:04.058Z,21.80
2024-01-18T00:59:04.009Z,23.30
2024-01-18T01:00:04.011Z,19.30
2024-01-18T01:01:03.970Z,23.50
2024-01-18T01:02:03.865Z,22.20
2024-01-18T01:03:03.956Z,21.50
2024-01-18T01:04:03.783Z,21.00
2024-01-18T01:05:03.710Z,19.40
2024-01-18T01:06:03.844Z,20.20
2024-01-18T01:07:03.659Z,20.30
2024-01-18T01:08:03.629Z,21.70
2024-01-18T01:09:03.550Z,19.50
2024-01-18T01:10:03.457Z,21.80
2024-01-18T01:11:03.422Z,20.90
2024-01-18T01:12:03.386Z,20.70
2024-01-18T01:13:03.313Z,20.60
2024-01-18T01:14:03.297Z,18.40
2024-01-18T01:15:03.363Z,20.50
2024-01-18T01:16:03.251Z,18.20
2024-01-18T01:17:03.116Z,23.80
2024-01-18T01:18:03.148Z,21.00
2024-01-18T01:19:03.200Z,23.50
2024-01-18T01:20:05.998Z,19.10
2024-01-18T01:21:02.952Z,20.10
2024-01-18T01:22:02.906Z,19.60
2024-01-18T01:23:02.836Z,19.80
2024-01-18T01:24:02.831Z,19.40
2024-01-18T01:25:02.725Z,20.50
2024-01-18T01:26:02.663Z,20.50
2024-01-18T01:27:02.685Z,21.10
2024-01-18T01:28:02.591Z,20.40
2024-01-18T01:29:02.516Z,23.80
2024-01-18T01:30:02.509Z,18.60
2024-01-18T01:31:02.417Z,19.40
2024-01-18T01:32:02.370Z,21.30
2024-01-18T01:33:02.470Z,21.00
2024-01-18T01:34:02.341Z,20.90
2024-01-18T01:35:02.217Z,19.80
2024-01-18T01:36:02.244Z,22.00
2024-01-18T01:37:02.118Z,20.70
2024-01-18T01:38:02.072Z,22.30
2024-01-18T01:39:02.046Z,18.40
2024-01-18T01:40:01.976Z,19.30
2024-01-18T01:41:01.912Z,21.90
2024-01-18T01:42:01.947Z,20.80
2024-01-18T01:43:01.823Z,19.50
2024-01-18T01:44:01.847Z,22.50
2024-01-18T01:45:01.900Z,20.40
2024-01-18T01:46:01.848Z,22.10
2024-01-18T01:47:01.657Z,19.20
2024-01-18T01:48:01.694Z,20.20
2024-01-18T01:49:01.616Z,19.40
2024-01-18T01:50:01.472Z,24.30
2024-01-18T01:51:01.441Z,19.70
2024-01-18T01:52:01.381Z,20.40
2024-01-18T01:53:01.323Z,22.00
2024-01-18T01:54:01.305Z,22.20
2024-01-18T01:55:01.255Z,19.00
2024-01-18T01:56:01.183Z,20.80
2024-01-18T01:57:01.161Z,20.90
2024-01-18T01:58:01.076Z,20.80
2024-01-18T01:59:01.028Z,21.70
2024-01-18T02:00:01.028Z,21.80
2024-01-18T02:03:00.885Z,21.20
2024-01-18T02:04:00.836Z,21.70
2024-01-18T02:05:00.779Z,19.90
2024-01-18T02:06:00.894Z,20.20
2024-01-18T02:07:00.684Z,19.70
2024-01-18T02:08:00.585Z,19.70
2024-01-18T02:09:00.621Z,19.40
2024-01-18T02:10:00.631Z,20.30
2024-01-18T02:11:00.467Z,21.70
2024-01-18T02:12:00.388Z,19.40
2024-01-18T02:13:00.334Z,20.70
2024-01-18T02:14:00.287Z,19.60
2024-01-18T02:15:00.364Z,21.20
2024-01-18T02:17:00.131Z,21.20
2024-01-18T02:18:00.156Z,18.20
2024-01-18T02:19:00.165Z,21.20
2024-01-18T02:20:00.031Z,21.70
2024-01-18T02:20:59.960Z,20.90
2024-01-18T02:21:59.887Z,23.40
2024-01-18T02:22:59.832Z,19.20
2024-01-18T02:23:59.805Z,22.40
2024-01-18T02:24:59.745Z,19.80
2024-01-18T02:25:59.686Z,20.60
2024-01-18T02:26:59.763Z,20.40
2024-01-18T02:27:59.583Z,20.40
2024-01-18T02:28:59.550Z,21.10
2024-01-18T02:29:59.542Z,20.50
2024-01-18T02:30:59.438Z,21.10
2024-01-18T02:31:59.378Z,22.20
2024-01-18T02:32:59.372Z,22.00
2024-01-18T02:35:59.305Z,21.60
2024-01-18T02:36:59.156Z,21.60
2024-01-18T02:37:59.089Z,21.30
2024-01-18T02:38:59.142Z,21.20
2024-01-18T02:39:58.988Z,23.60
2024-01-18T02:40:58.944Z,22.30
2024-01-18T02:41:58.959Z,21.20
2024-01-18T02:42:58.909Z,20.30
2024-01-18T02:43:58.801Z,19.80
2024-01-18T02:44:58.879Z,21.30
2024-01-18T02:45:58.687Z,21.50
2024-01-18T02:46:58.638Z,22.70
2024-01-18T02:47:58.632Z,19.90
2024-01-18T02:48:58.581Z,22.90
2024-01-18T02:50:41.886Z,20.90
2024-01-18T02:51:41.850Z,21.50
2024-01-18T02:52:41.768Z,18.50
2024-01-18T02:53:41.724Z,23.80
2024-01-18T02:54:41.727Z,21.30
2024-01-18T02:55:41.620Z,20.90
2024-01-18T02:56:41.571Z,20.80
2024-01-18T02:57:41.561Z,22.40
2024-01-18T02:58:41.496Z,23.00
2024-01-18T02:59:41.413Z,20.20
2024-01-18T03:00:41.472Z,21.80
2024-01-18T03:01:41.310Z,22.40
2024-01-18T03:02:41.283Z,21.80
2024-01-18T03:03:41.289Z,22.10
2024-01-18T03:04:41.301Z,20.40
2024-01-18T03:05:41.111Z,20.30
2024-01-18T03:06:41.106Z,20.50
2024-01-18T03:07:41.043Z,20.90
2024-01-18T03:08:40.967Z,19.40
2024-01-18T03:09:40.991Z,22.60
2024-01-18T03:10:40.867Z,21.80
2024-01-18T03:11:40.820Z,21.70
2024-01-18T03:12:40.876Z,22.10
2024-01-18T03:13:40.770Z,26.40
2024-01-18T03:14:40.698Z,20.80
2024-01-18T03:15:40.715Z,19.20
2024-01-18T03:16:40.570Z,19.60
2024-01-18T03:17:40.549Z,21.60
2024-01-18T03:18:40.585Z,20.10
2024-01-18T03:19:40.446Z,21.60
2024-01-18T03:20:40.379Z,20.50
2024-01-18T03:21:40.358Z,21.10
2024-01-18T03:22:40.279Z,21.70
2024-01-18T03:23:40.228Z,22.00
2024-01-18T03:24:40.270Z,25.50
2024-01-18T03:26:40.073Z,19.50
2024-01-18T03:27:40.116Z,20.80
2024-01-18T03:28:39.978Z,21.20
2024-01-18T03:29:39.929Z,23.60
2024-01-18T03:30:40.047Z,22.00
2024-01-18T03:31:39.821Z,21.40
2024-01-18T03:32:39.817Z,20.50
2024-01-18T03:33:39.841Z,24.30
2024-01-18T03:34:39.731Z,23.80
2024-01-18T03:35:39.627Z,23.50
2024-01-18T03:36:39.695Z,22.00
2024-01-18T03:37:39.524Z,19.80
2024-01-18T03:38:39.478Z,19.90
2024-01-18T03:39:39.492Z,19.90
2024-01-18T03:40:39.383Z,21.60
2024-01-18T03:41:39.337Z,21.80
2024-01-18T03:43:39.226Z,21.30
2024-01-18T03:44:39.185Z,21.20
2024-01-18T03:45:39.299Z,21.20
2024-01-18T03:46:39.147Z,21.00
2024-01-18T03:47:39.059Z,21.50
2024-01-18T03:48:39.045Z,18.70
2024-01-18T03:49:38.967Z,22.60
2024-01-18T03:50:38.891Z,21.10
2024-01-18T03:51:38.856Z,20.50
2024-01-18T03:52:38.783Z,21.70
2024-01-18T03:53:38.733Z,21.80
2024-01-18T03:54:38.718Z,22.20
2024-01-18T03:55:38.639Z,20.90
2024-01-18T03:56:38.585Z,21.00
2024-01-18T03:57:38.604Z,20.50
2024-01-18T03:58:38.500Z,20.90
2024-01-18T03:59:38.443Z,20.10
2024-01-18T04:00:38.447Z,21.20
2024-01-18T04:01:38.340Z,21.00
2024-01-18T04:02:38.319Z,22.10
2024-01-18T04:03:38.375Z,22.30
2024-01-18T04:04:38.192Z,23.60
2024-01-18T04:05:38.227Z,21.80
2024-01-18T04:06:38.136Z,21.50
2024-01-18T04:07:38.034Z,20.60
2024-01-18T04:09:21.437Z,21.70
2024-01-18T04:10:21.336Z,19.80
2024-01-18T04:11:21.263Z,20.90
2024-01-18T04:12:21.280Z,21.70
2024-01-18T04:13:21.166Z,23.30
2024-01-18T04:14:21.110Z,21.40
2024-01-18T04:15:21.086Z,21.50
2024-01-18T04:16:21.022Z,20.90
2024-01-18T04:17:21.031Z,21.00
2024-01-18T04:18:21.074Z,22.00
2024-01-18T04:19:20.960Z,22.40
2024-01-18T04:20:20.824Z,20.50
2024-01-18T04:21:20.840Z,22.20
2024-01-18T04:22:20.725Z,22.10
2024-01-18T04:23:20.672Z,21.00
2024-01-18T04:24:20.644Z,20.50
2024-01-18T04:25:20.587Z,21.30
2024-01-18T04:26:20.534Z,22.80
2024-01-18T04:27:20.541Z,24.40
2024-01-18T04:28:20.460Z,22.20
2024-01-18T04:29:20.375Z,23.60
2024-01-18T04:30:20.359Z,21.40
2024-01-18T04:31:20.270Z,23.30
2024-01-18T04:32:20.232Z,23.90
2024-01-18T04:33:20.392Z,23.60
2024-01-18T04:34:20.139Z,22.30
2024-01-18T04:35:20.128Z,22.30
2024-01-18T04:36:20.094Z,23.20
2024-01-18T04:37:19.971Z,22.40
2024-01-18T04:38:19.929Z,22.40
2024-01-18T04:39:19.980Z,21.60
2024-01-18T04:40:19.830Z,22.00
2024-01-18T04:41:19.771Z,21.30
2024-01-18T04:42:19.783Z,21.00
2024-01-18T04:43:19.692Z,22.40
2024-01-18T04:44:19.622Z,21.30
2024-01-18T04:45:19.590Z,23.60
2024-01-18T04:46:19.545Z,25.40
2024-01-18T04:47:19.471Z,20.50
2024-01-18T04:48:19.542Z,20.60
2024-01-18T04:49:19.399Z,21.00
2024-01-18T04:50:19.339Z,24.30
2024-01-18T04:51:19.338Z,22.90
2024-01-18T04:52:19.225Z,24.60
2024-01-18T04:53:19.172Z,24.10
2024-01-18T04:54:19.170Z,23.00
2024-01-18T04:55:19.070Z,22.60
2024-01-18T04:56:19.032Z,23.90
2024-01-18T04:57:19.062Z,22.30
2024-01-18T04:58:18.941Z,23.40
2024-01-18T04:59:18.937Z,24.20
2024-01-18T05:00:18.932Z,21.40
2024-01-18T05:01:19.127Z,23.40
2024-01-18T05:02:18.729Z,20.50
2024-01-18T05:03:18.723Z,21.80
2024-01-18T05:04:18.685Z,22.20
2024-01-18T05:05:18.619Z,21.20
2024-01-18T05:06:18.689Z,22.60
2024-01-18T05:07:18.538Z,23.30
2024-01-18T05:08:18.453Z,21.30
2024-01-18T05:09:18.484Z,22.30
2024-01-18T05:11:18.282Z,20.40
2024-01-18T05:12:18.271Z,22.30
2024-01-18T05:13:18.175Z,20.70
2024-01-18T05:14:18.134Z,22.00
2024-01-18T05:15:18.123Z,23.00
2024-01-18T05:16:18.026Z,23.20
2024-01-18T05:17:17.975Z,23.70
2024-01-18T05:18:18.048Z,22.20
2024-01-18T05:19:17.925Z,21.90
2024-01-18T05:20:17.829Z,22.80
2024-01-18T05:21:17.800Z,21.50
2024-01-18T05:22:17.744Z,22.50
2024-01-18T05:23:17.683Z,20.80
2024-01-18T05:24:17.661Z,22.50
2024-01-18T05:25:17.577Z,23.10
2024-01-18T05:26:17.529Z,22.50
2024-01-18T05:27:17.502Z,23.90
2024-01-18T05:28:17.434Z,22.70
2024-01-18T05:29:17.369Z,24.90
2024-01-18T05:30:17.357Z,24.50
2024-01-18T05:31:17.277Z,21.80
2024-01-18T05:32:17.222Z,21.60
2024-01-18T05:33:17.229Z,22.20
2024-01-18T05:34:17.259Z,24.70
2024-01-18T05:35:17.080Z,25.50
2024-01-18T05:36:17.076Z,25.40
2024-01-18T05:37:16.982Z,20.90
2024-01-18T05:38:16.946Z,26.50
2024-01-18T05:39:16.943Z,26.10
2024-01-18T05:40:16.823Z,23.80
2024-01-18T05:41:16.768Z,24.30
2024-01-18T05:42:16.750Z,21.90
2024-01-18T05:43:16.675Z,22.30
2024-01-18T05:44:16.621Z,24.10
2024-01-18T05:45:16.592Z,21.70
2024-01-18T05:46:16.574Z,23.50
2024-01-18T05:47:16.486Z,24.60
2024-01-18T05:48:16.583Z,24.70
2024-01-18T05:49:16.551Z,22.10
2024-01-18T05:50:16.356Z,22.50
2024-01-18T05:51:16.299Z,23.50
2024-01-18T05:52:16.232Z,24.60
2024-01-18T05:53:16.173Z,21.20
2024-01-18T05:54:16.148Z,24.40
2024-01-18T05:55:16.068Z,24.30
2024-01-18T05:56:16.021Z,24.70
2024-01-18T05:57:16.004Z,21.20
2024-01-18T05:58:15.930Z,24.40
2024-01-18T05:59:15.871Z,22.00
2024-01-18T06:00:15.864Z,22.90
2024-01-18T06:01:15.835Z,24.70
2024-01-18T06:02:15.732Z,24.30
2024-01-18T06:03:15.723Z,24.50
2024-01-18T06:04:15.696Z,26.70
2024-01-18T06:05:15.583Z,23.80
2024-01-18T06:06:15.585Z,23.40
2024-01-18T06:07:15.541Z,25.50
2024-01-18T06:08:15.422Z,23.40
2024-01-18T06:09:15.406Z,24.10
2024-01-18T06:10:15.384Z,23.80
2024-01-18T06:11:15.277Z,23.50
2024-01-18T06:13:15.171Z,28.70
2024-01-18T06:14:15.124Z,23.70
2024-01-18T06:15:15.170Z,23.30
2024-01-18T06:16:15.022Z,26.70
2024-01-18T06:17:14.974Z,26.90
2024-01-18T06:18:14.992Z,24.40
2024-01-18T06:19:15.072Z,25.00
2024-01-18T06:20:14.866Z,24.70
2024-01-18T06:21:14.799Z,22.30
2024-01-18T06:22:14.727Z,24.70
2024-01-18T06:23:14.679Z,23.90
2024-01-18T06:24:14.682Z,23.70
2024-01-18T06:25:14.587Z,25.20
2024-01-18T06:26:14.543Z,25.40
2024-01-18T06:27:14.496Z,22.40
2024-01-18T06:29:14.367Z,27.60
2024-01-18T06:30:14.370Z,24.70
2024-01-18T06:31:14.273Z,22.40
2024-01-18T06:32:14.254Z,25.10
2024-01-18T06:33:14.286Z,24.90
2024-01-18T06:34:14.206Z,23.40
2024-01-18T06:35:14.072Z,23.80
2024-01-18T06:36:14.029Z,21.90
2024-01-18T06:37:13.973Z,23.30
2024-01-18T06:38:13.933Z,22.80
2024-01-18T06:39:13.891Z,24.00
2024-01-18T06:40:13.841Z,23.60
2024-01-18T06:41:13.770Z,22.10
2024-01-18T06:42:13.788Z,25.70
2024-01-18T06:43:13.671Z,28.00
2024-01-18T06:44:13.638Z,27.20
2024-01-18T06:45:13.611Z,25.10
2024-01-18T06:46:13.521Z,24.00
2024-01-18T06:47:13.485Z,25.80
2024-01-18T06:48:16.080Z,24.60
2024-01-18T06:49:13.377Z,24.40
2024-01-18T06:50:13.326Z,27.30
2024-01-18T06:51:13.283Z,29.20
2024-01-18T06:52:13.218Z,29.20
2024-01-18T06:53:13.170Z,26.50
2024-01-18T06:54:13.154Z,28.50
2024-01-18T06:56:40.661Z,26.70
2024-01-18T06:57:40.743Z,29.60
2024-01-18T06:58:40.548Z,27.40
2024-01-18T06:59:40.514Z,30.80
2024-01-18T07:00:40.527Z,28.90
2024-01-18T07:01:40.440Z,28.40
2024-01-18T07:02:40.372Z,28.40
2024-01-18T07:03:40.371Z,30.60
2024-01-18T07:04:40.277Z,31.30
2024-01-18T07:05:40.188Z,26.70
2024-01-18T07:06:40.325Z,27.20
2024-01-18T07:07:40.092Z,27.60
2024-01-18T07:08:40.044Z,28.80
2024-01-18T07:09:40.178Z,26.70
2024-01-18T07:10:39.937Z,25.20
2024-01-18T07:11:39.897Z,31.30
2024-01-18T07:12:39.923Z,28.10
2024-01-18T07:13:39.835Z,26.30
2024-01-18T07:14:39.796Z,27.00
2024-01-18T07:15:39.700Z,24.90
2024-01-18T07:16:39.637Z,25.60
2024-01-18T07:17:39.613Z,26.90
2024-01-18T07:18:39.597Z,24.00
2024-01-18T07:19:40.863Z,23.90
2024-01-18T07:20:39.436Z,27.50
2024-01-18T07:21:39.472Z,26.20
2024-01-18T07:22:39.341Z,23.80
2024-01-18T07:23:39.294Z,25.40
2024-01-18T07:24:39.304Z,23.70
2024-01-18T07:25:39.186Z,24.60
2024-01-18T07:26:39.127Z,23.10
2024-01-18T07:27:39.110Z,24.40
2024-01-18T07:28:39.040Z,24.50
2024-01-18T07:29:39.009Z,25.90
2024-01-18T07:30:38.996Z,26.00
2024-01-18T07:31:38.926Z,25.80
2024-01-18T07:32:38.875Z,24.60
2024-01-18T07:33:38.903Z,24.20
2024-01-18T07:34:38.809Z,25.90
2024-01-18T07:35:38.685Z,26.90
2024-01-18T07:36:38.693Z,26.00
2024-01-18T07:37:38.571Z,26.20
2024-01-18T07:38:38.520Z,26.70
2024-01-18T07:39:38.539Z,27.50
2024-01-18T07:40:38.420Z,25.60
2024-01-18T07:41:38.372Z,25.50
2024-01-18T07:42:41.425Z,25.00
2024-01-18T07:43:38.268Z,29.50
2024-01-18T07:44:38.217Z,25.70
2024-01-18T07:45:38.224Z,29.60
2024-01-18T07:46:38.141Z,28.00
2024-01-18T07:47:38.079Z,27.50
2024-01-18T07:48:38.105Z,25.30
2024-01-18T07:49:37.985Z,28.10
2024-01-18T07:50:38.015Z,26.30
2024-01-18T07:51:37.902Z,28.90
2024-01-18T07:52:37.824Z,27.90
2024-01-18T07:53:37.764Z,26.20
2024-01-18T07:54:37.752Z,26.40
2024-01-18T07:55:37.668Z,26.80
2024-01-18T07:56:37.611Z,26.20
2024-01-18T07:57:37.607Z,26.80
2024-01-18T07:58:37.536Z,25.30
2024-01-18T07:59:37.453Z,26.60
2024-01-18T08:00:37.631Z,26.60
2024-01-18T08:01:40.130Z,26.30
2024-01-18T08:02:37.319Z,30.90
2024-01-18T08:03:37.324Z,27.20
2024-01-18T08:04:37.247Z,27.20
2024-01-18T08:05:37.212Z,29.60
2024-01-18T08:06:37.257Z,30.00
2024-01-18T08:07:37.057Z,28.30
2024-01-18T08:08:36.996Z,30.60
2024-01-18T08:09:36.979Z,27.50
2024-01-18T08:10:36.904Z,33.00
2024-01-18T08:11:36.843Z,30.70
2024-01-18T08:12:36.801Z,29.00
2024-01-18T08:13:36.747Z,28.80
2024-01-18T08:14:36.694Z,29.90
2024-01-18T08:15:36.707Z,24.90
2024-01-18T08:16:36.586Z,38.10
2024-01-18T08:17:36.816Z,30.90
2024-01-18T08:18:36.571Z,30.50
2024-01-18T08:19:36.550Z,25.40
2024-01-18T08:20:36.379Z,30.40
2024-01-18T08:21:36.352Z,29.80
2024-01-18T08:22:36.271Z,29.70
2024-01-18T08:23:36.239Z,31.00
2024-01-18T08:24:36.215Z,33.50
2024-01-18T08:25:36.116Z,32.40
2024-01-18T08:26:37.672Z,33.40
2024-01-18T08:27:36.107Z,36.10
2024-01-18T08:28:36.004Z,30.10
2024-01-18T08:29:35.951Z,31.80
2024-01-18T08:30:35.989Z,30.00
2024-01-18T08:31:35.799Z,28.90
2024-01-18T08:32:35.904Z,27.50
2024-01-18T08:33:35.798Z,28.90
2024-01-18T08:34:35.643Z,29.10
2024-01-18T08:35:35.607Z,33.50
2024-01-18T08:36:35.700Z,31.90
2024-01-18T08:37:35.534Z,28.20
2024-01-18T08:38:35.439Z,33.00
2024-01-18T08:39:35.485Z,29.00
2024-01-18T08:40:35.344Z,29.10
2024-01-18T08:41:35.281Z,28.10
2024-01-18T08:42:35.286Z,26.90
2024-01-18T08:43:35.170Z,30.00
2024-01-18T08:44:35.170Z,29.90
2024-01-18T08:45:35.125Z,28.60
2024-01-18T08:46:35.041Z,28.60
2024-01-18T08:47:34.974Z,30.30
2024-01-18T08:49:34.926Z,27.70
2024-01-18T08:50:34.801Z,28.70
2024-01-18T08:51:34.811Z,29.00
2024-01-18T08:52:34.740Z,29.90
2024-01-18T08:53:34.655Z,28.90
2024-01-18T08:54:34.685Z,26.10
2024-01-18T08:55:34.547Z,32.60
2024-01-18T08:56:34.502Z,29.00
2024-01-18T08:57:34.459Z,30.20
2024-01-18T08:58:34.385Z,30.30
2024-01-18T08:59:34.332Z,28.40
2024-01-18T09:00:34.368Z,27.00
2024-01-18T09:01:34.260Z,29.10
2024-01-18T09:02:34.173Z,27.20
2024-01-18T09:03:34.150Z,29.30
2024-01-18T09:04:34.086Z,31.60
2024-01-18T09:05:34.044Z,27.60
2024-01-18T09:06:34.013Z,26.60
2024-01-18T09:07:33.986Z,26.30
2024-01-18T09:08:33.889Z,27.20
2024-01-18T09:09:33.918Z,32.40
2024-01-18T09:10:33.752Z,33.60
2024-01-18T09:11:33.711Z,36.40
2024-01-18T09:12:33.676Z,35.80
2024-01-18T09:13:33.599Z,37.00
2024-01-18T09:14:33.550Z,35.80
2024-01-18T09:15:33.523Z,33.70
2024-01-18T09:16:33.448Z,27.10
2024-01-18T09:17:33.401Z,30.70
2024-01-18T09:18:33.485Z,33.30
2024-01-18T09:19:33.437Z,28.20
2024-01-18T09:20:33.343Z,24.90
2024-01-18T09:21:33.300Z,28.50
2024-01-18T09:22:33.173Z,27.40
2024-01-18T09:23:33.081Z,27.10
2024-01-18T09:24:33.085Z,26.00
2024-01-18T09:25:32.988Z,24.50
2024-01-18T09:26:32.976Z,26.00
2024-01-18T09:27:32.954Z,28.50
2024-01-18T09:28:32.871Z,27.50
2024-01-18T09:29:32.908Z,30.00
2024-01-18T09:30:32.745Z,29.00
2024-01-18T09:31:38.778Z,28.20
2024-01-18T09:32:32.613Z,25.50
2024-01-18T09:33:32.581Z,25.30
2024-01-18T09:34:32.501Z,26.40
2024-01-18T09:35:32.463Z,27.30
2024-01-18T09:36:32.412Z,23.50
2024-01-18T09:37:32.369Z,21.00
2024-01-18T09:38:32.300Z,20.20
2024-01-18T09:39:32.381Z,22.10
2024-01-18T09:40:32.198Z,20.30
2024-01-18T09:41:32.136Z,23.80
2024-01-18T09:42:32.091Z,21.40
2024-01-18T09:43:32.038Z,18.20
2024-01-18T09:44:31.990Z,20.00
2024-01-18T09:45:31.991Z,21.00
2024-01-18T09:46:32.035Z,18.40
2024-01-18T09:47:31.882Z,18.60
2024-01-18T09:48:31.793Z,19.40
